sensor_id;sensor_type;location;lat;lon;timestamp;temperature;humidity
17992;DHT22;9121;50.926;5.340;2022-08-01T00:00:26;22.30;99.90
17992;DHT22;9121;50.926;5.340;2022-08-01T00:02:54;22.30;99.90
17992;DHT22;9121;50.926;5.340;2022-08-01T00:05:21;22.30;99.90
17992;DHT22;9121;50.926;5.340;2022-08-01T00:07:48;22.30;99.90
17992;DHT22;9121;50.926;5.340;2022-08-01T00:10:16;22.20;99.90
17992;DHT22;9121;50.926;5.340;2022-08-01T00:12:44;22.20;99.90
17992;DHT22;9121;50.926;5.340;2022-08-01T00:15:13;22.20;99.90
17992;DHT22;9121;50.926;5.340;2022-08-01T00:17:41;22.20;99.90
17992;DHT22;9121;50.926;5.340;2022-08-01T00:20:12;22.10;99.90
17992;DHT22;9121;50.926;5.340;2022-08-01T00:22:39;22.10;99.90
17992;DHT22;9121;50.926;5.340;2022-08-01T00:25:07;22.00;99.90
17992;DHT22;9121;50.926;5.340;2022-08-01T00:27:34;22.00;99.90
17992;DHT22;9121;50.926;5.340;2022-08-01T00:30:01;22.00;99.90
17992;DHT22;9121;50.926;5.340;2022-08-01T00:32:30;21.90;99.90
17992;DHT22;9121;50.926;5.340;2022-08-01T00:34:57;22.00;99.90
17992;DHT22;9121;50.926;5.340;2022-08-01T00:37:25;22.10;99.90
17992;DHT22;9121;50.926;5.340;2022-08-01T00:39:52;22.10;99.90
17992;DHT22;9121;50.926;5.340;2022-08-01T00:42:19;22.10;99.90
17992;DHT22;9121;50.926;5.340;2022-08-01T00:44:46;22.10;99.90
17992;DHT22;9121;50.926;5.340;2022-08-01T00:47:13;22.10;99.90
17992;DHT22;9121;50.926;5.340;2022-08-01T00:49:40;22.10;99.90
17992;DHT22;9121;50.926;5.340;2022-08-01T00:52:08;22.10;99.90
17992;DHT22;9121;50.926;5.340;2022-08-01T00:54:36;22.10;99.90
17992;DHT22;9121;50.926;5.340;2022-08-01T00:57:04;22.10;99.90
17992;DHT22;9121;50.926;5.340;2022-08-01T00:59:31;22.10;99.90
17992;DHT22;9121;50.926;5.340;2022-08-01T01:01:58;22.10;99.90
17992;DHT22;9121;50.926;5.340;2022-08-01T01:04:25;22.10;99.90
17992;DHT22;9121;50.926;5.340;2022-08-01T01:06:59;22.10;99.90
17992;DHT22;9121;50.926;5.340;2022-08-01T01:09:38;22.10;99.90
17992;DHT22;9121;50.926;5.340;2022-08-01T01:12:17;22.10;99.90
17992;DHT22;9121;50.926;5.340;2022-08-01T01:14:53;22.10;99.90
17992;DHT22;9121;50.926;5.340;2022-08-01T01:17:31;22.10;99.90
17992;DHT22;9121;50.926;5.340;2022-08-01T01:20:01;22.10;99.90
17992;DHT22;9121;50.926;5.340;2022-08-01T01:23:05;22.10;99.90
17992;DHT22;9121;50.926;5.340;2022-08-01T01:25:46;22.10;99.90
17992;DHT22;9121;50.926;5.340;2022-08-01T01:28:22;22.00;99.90
17992;DHT22;9121;50.926;5.340;2022-08-01T01:30:56;22.00;99.90
17992;DHT22;9121;50.926;5.340;2022-08-01T01:33:25;22.00;99.90
17992;DHT22;9121;50.926;5.340;2022-08-01T01:36:00;21.90;99.90
17992;DHT22;9121;50.926;5.340;2022-08-01T01:38:32;21.90;99.90
17992;DHT22;9121;50.926;5.340;2022-08-01T01:41:00;21.90;99.90
17992;DHT22;9121;50.926;5.340;2022-08-01T01:43:29;21.90;99.90
17992;DHT22;9121;50.926;5.340;2022-08-01T01:45:58;22.00;99.90
17992;DHT22;9121;50.926;5.340;2022-08-01T01:48:26;22.00;99.90
17992;DHT22;9121;50.926;5.340;2022-08-01T01:50:54;22.00;99.90
17992;DHT22;9121;50.926;5.340;2022-08-01T01:53:22;22.10;99.90
17992;DHT22;9121;50.926;5.340;2022-08-01T01:55:53;22.10;99.90
17992;DHT22;9121;50.926;5.340;2022-08-01T01:58:22;22.00;99.90
17992;DHT22;9121;50.926;5.340;2022-08-01T02:00:52;22.00;99.90
17992;DHT22;9121;50.926;5.340;2022-08-01T02:03:21;21.90;99.90
17992;DHT22;9121;50.926;5.340;2022-08-01T02:05:49;21.90;99.90
17992;DHT22;9121;50.926;5.340;2022-08-01T02:08:17;21.90;99.90
17992;DHT22;9121;50.926;5.340;2022-08-01T02:10:45;21.90;99.90
17992;DHT22;9121;50.926;5.340;2022-08-01T02:13:34;21.90;99.90
17992;DHT22;9121;50.926;5.340;2022-08-01T02:16:03;21.90;99.90
17992;DHT22;9121;50.926;5.340;2022-08-01T02:18:32;21.90;99.90
17992;DHT22;9121;50.926;5.340;2022-08-01T02:21:00;21.80;99.90
17992;DHT22;9121;50.926;5.340;2022-08-01T02:23:32;21.80;99.90
17992;DHT22;9121;50.926;5.340;2022-08-01T02:26:01;21.80;99.90
17992;DHT22;9121;50.926;5.340;2022-08-01T02:28:31;21.80;99.90
17992;DHT22;9121;50.926;5.340;2022-08-01T02:31:02;21.80;99.90
17992;DHT22;9121;50.926;5.340;2022-08-01T02:33:36;21.90;99.90
17992;DHT22;9121;50.926;5.340;2022-08-01T02:36:05;21.80;99.90
17992;DHT22;9121;50.926;5.340;2022-08-01T02:38:35;21.80;99.90
17992;DHT22;9121;50.926;5.340;2022-08-01T02:41:06;21.80;99.90
17992;DHT22;9121;50.926;5.340;2022-08-01T02:43:36;21.80;99.90
17992;DHT22;9121;50.926;5.340;2022-08-01T02:46:04;21.80;99.90
17992;DHT22;9121;50.926;5.340;2022-08-01T02:48:36;21.80;99.90
17992;DHT22;9121;50.926;5.340;2022-08-01T02:51:06;21.70;99.90
17992;DHT22;9121;50.926;5.340;2022-08-01T02:53:36;21.70;99.90
17992;DHT22;9121;50.926;5.340;2022-08-01T02:56:05;21.70;99.90
17992;DHT22;9121;50.926;5.340;2022-08-01T02:58:33;21.70;99.90
17992;DHT22;9121;50.926;5.340;2022-08-01T03:01:03;21.70;99.90
17992;DHT22;9121;50.926;5.340;2022-08-01T03:03:32;21.70;99.90
17992;DHT22;9121;50.926;5.340;2022-08-01T03:06:02;21.70;99.90
17992;DHT22;9121;50.926;5.340;2022-08-01T03:08:30;21.80;99.90
17992;DHT22;9121;50.926;5.340;2022-08-01T03:10:59;21.70;99.90
17992;DHT22;9121;50.926;5.340;2022-08-01T03:13:29;21.70;99.90
17992;DHT22;9121;50.926;5.340;2022-08-01T03:15:58;21.70;99.90
17992;DHT22;9121;50.926;5.340;2022-08-01T03:18:26;21.70;99.90
17992;DHT22;9121;50.926;5.340;2022-08-01T03:20:55;21.70;99.90
17992;DHT22;9121;50.926;5.340;2022-08-01T03:23:25;21.70;99.90
17992;DHT22;9121;50.926;5.340;2022-08-01T03:25:53;21.70;99.90
17992;DHT22;9121;50.926;5.340;2022-08-01T03:28:21;21.80;99.90
17992;DHT22;9121;50.926;5.340;2022-08-01T03:30:49;21.80;99.90
17992;DHT22;9121;50.926;5.340;2022-08-01T03:33:17;21.80;99.90
17992;DHT22;9121;50.926;5.340;2022-08-01T03:35:51;21.80;99.90
17992;DHT22;9121;50.926;5.340;2022-08-01T03:38:22;21.80;99.90
17992;DHT22;9121;50.926;5.340;2022-08-01T03:40:53;21.80;99.90
17992;DHT22;9121;50.926;5.340;2022-08-01T03:43:26;21.80;99.90
17992;DHT22;9121;50.926;5.340;2022-08-01T03:45:58;21.70;99.90
17992;DHT22;9121;50.926;5.340;2022-08-01T03:48:29;21.70;99.90
17992;DHT22;9121;50.926;5.340;2022-08-01T03:50:58;21.70;99.90
17992;DHT22;9121;50.926;5.340;2022-08-01T03:53:30;21.70;99.90
17992;DHT22;9121;50.926;5.340;2022-08-01T03:55:59;21.60;99.90
17992;DHT22;9121;50.926;5.340;2022-08-01T03:58:27;21.60;99.90
17992;DHT22;9121;50.926;5.340;2022-08-01T04:00:55;21.70;99.90
17992;DHT22;9121;50.926;5.340;2022-08-01T04:03:22;21.70;99.90
17992;DHT22;9121;50.926;5.340;2022-08-01T04:05:50;21.70;99.90
17992;DHT22;9121;50.926;5.340;2022-08-01T04:08:17;21.60;99.90
17992;DHT22;9121;50.926;5.340;2022-08-01T04:10:43;21.60;99.90
17992;DHT22;9121;50.926;5.340;2022-08-01T04:13:12;21.60;99.90
17992;DHT22;9121;50.926;5.340;2022-08-01T04:15:39;21.60;99.90
17992;DHT22;9121;50.926;5.340;2022-08-01T04:18:06;21.50;99.90
17992;DHT22;9121;50.926;5.340;2022-08-01T04:20:33;21.50;99.90
17992;DHT22;9121;50.926;5.340;2022-08-01T04:22:59;21.60;99.90
17992;DHT22;9121;50.926;5.340;2022-08-01T04:25:31;21.50;99.90
17992;DHT22;9121;50.926;5.340;2022-08-01T04:28:00;21.50;99.90
17992;DHT22;9121;50.926;5.340;2022-08-01T04:30:34;21.50;99.90
17992;DHT22;9121;50.926;5.340;2022-08-01T04:33:04;21.60;99.90
17992;DHT22;9121;50.926;5.340;2022-08-01T04:35:34;21.60;99.90
17992;DHT22;9121;50.926;5.340;2022-08-01T04:38:02;21.60;99.90
17992;DHT22;9121;50.926;5.340;2022-08-01T04:40:31;21.60;99.90
17992;DHT22;9121;50.926;5.340;2022-08-01T04:42:58;21.60;99.90
17992;DHT22;9121;50.926;5.340;2022-08-01T04:45:26;21.60;99.90
17992;DHT22;9121;50.926;5.340;2022-08-01T04:47:54;21.60;99.90
17992;DHT22;9121;50.926;5.340;2022-08-01T04:50:23;21.50;99.90
17992;DHT22;9121;50.926;5.340;2022-08-01T04:52:50;21.60;99.90
17992;DHT22;9121;50.926;5.340;2022-08-01T04:55:17;21.60;99.90
17992;DHT22;9121;50.926;5.340;2022-08-01T04:57:46;21.60;99.90
17992;DHT22;9121;50.926;5.340;2022-08-01T05:00:14;21.60;99.90
17992;DHT22;9121;50.926;5.340;2022-08-01T05:02:42;21.50;99.90
17992;DHT22;9121;50.926;5.340;2022-08-01T05:05:10;21.50;99.90
17992;DHT22;9121;50.926;5.340;2022-08-01T05:07:37;21.50;99.90
17992;DHT22;9121;50.926;5.340;2022-08-01T05:10:05;21.40;99.90
17992;DHT22;9121;50.926;5.340;2022-08-01T05:12:32;21.40;99.90
17992;DHT22;9121;50.926;5.340;2022-08-01T05:14:59;21.40;99.90
17992;DHT22;9121;50.926;5.340;2022-08-01T05:17:27;21.40;99.90
17992;DHT22;9121;50.926;5.340;2022-08-01T05:19:54;21.40;99.90
17992;DHT22;9121;50.926;5.340;2022-08-01T05:22:22;21.40;99.90
17992;DHT22;9121;50.926;5.340;2022-08-01T05:24:51;21.40;99.90
17992;DHT22;9121;50.926;5.340;2022-08-01T05:27:18;21.20;99.90
17992;DHT22;9121;50.926;5.340;2022-08-01T05:29:45;21.20;99.90
17992;DHT22;9121;50.926;5.340;2022-08-01T05:32:12;21.30;99.90
17992;DHT22;9121;50.926;5.340;2022-08-01T05:34:39;21.30;99.90
17992;DHT22;9121;50.926;5.340;2022-08-01T05:37:06;21.20;99.90
17992;DHT22;9121;50.926;5.340;2022-08-01T05:39:35;21.20;99.90
17992;DHT22;9121;50.926;5.340;2022-08-01T05:42:02;21.20;99.90
17992;DHT22;9121;50.926;5.340;2022-08-01T05:44:29;21.20;99.90
17992;DHT22;9121;50.926;5.340;2022-08-01T05:46:56;21.20;99.90
17992;DHT22;9121;50.926;5.340;2022-08-01T05:49:23;21.10;99.90
17992;DHT22;9121;50.926;5.340;2022-08-01T05:51:50;21.10;99.90
17992;DHT22;9121;50.926;5.340;2022-08-01T05:54:18;21.00;99.90
17992;DHT22;9121;50.926;5.340;2022-08-01T05:56:46;21.00;99.90
17992;DHT22;9121;50.926;5.340;2022-08-01T05:59:13;20.90;99.90
17992;DHT22;9121;50.926;5.340;2022-08-01T06:01:40;20.90;99.90
17992;DHT22;9121;50.926;5.340;2022-08-01T06:04:07;20.70;99.90
17992;DHT22;9121;50.926;5.340;2022-08-01T06:06:34;20.60;99.90
17992;DHT22;9121;50.926;5.340;2022-08-01T06:09:01;20.60;99.90
17992;DHT22;9121;50.926;5.340;2022-08-01T06:11:27;20.80;99.90
17992;DHT22;9121;50.926;5.340;2022-08-01T06:13:56;20.80;99.90
17992;DHT22;9121;50.926;5.340;2022-08-01T06:16:23;21.00;99.90
17992;DHT22;9121;50.926;5.340;2022-08-01T06:18:50;21.00;99.90
17992;DHT22;9121;50.926;5.340;2022-08-01T06:21:17;21.00;99.90
17992;DHT22;9121;50.926;5.340;2022-08-01T06:23:44;21.00;99.90
17992;DHT22;9121;50.926;5.340;2022-08-01T06:26:11;21.00;99.90
17992;DHT22;9121;50.926;5.340;2022-08-01T06:28:38;21.10;99.90
17992;DHT22;9121;50.926;5.340;2022-08-01T06:31:06;21.10;99.90
17992;DHT22;9121;50.926;5.340;2022-08-01T06:33:35;21.20;99.90
17992;DHT22;9121;50.926;5.340;2022-08-01T06:36:02;21.40;99.90
17992;DHT22;9121;50.926;5.340;2022-08-01T06:38:29;21.40;99.90
17992;DHT22;9121;50.926;5.340;2022-08-01T06:40:57;21.50;99.90
17992;DHT22;9121;50.926;5.340;2022-08-01T06:43:24;21.60;99.90
17992;DHT22;9121;50.926;5.340;2022-08-01T06:45:50;21.70;99.90
17992;DHT22;9121;50.926;5.340;2022-08-01T06:48:19;21.70;99.90
17992;DHT22;9121;50.926;5.340;2022-08-01T06:50:46;21.80;99.90
17992;DHT22;9121;50.926;5.340;2022-08-01T06:53:12;21.80;99.90
17992;DHT22;9121;50.926;5.340;2022-08-01T06:55:39;21.90;99.90
17992;DHT22;9121;50.926;5.340;2022-08-01T06:58:06;21.90;99.90
17992;DHT22;9121;50.926;5.340;2022-08-01T07:00:33;21.90;99.90
17992;DHT22;9121;50.926;5.340;2022-08-01T07:03:01;21.90;99.90
17992;DHT22;9121;50.926;5.340;2022-08-01T07:05:29;21.90;99.90
17992;DHT22;9121;50.926;5.340;2022-08-01T07:07:56;22.00;99.90
17992;DHT22;9121;50.926;5.340;2022-08-01T07:10:24;22.00;99.90
17992;DHT22;9121;50.926;5.340;2022-08-01T07:12:51;22.10;99.90
17992;DHT22;9121;50.926;5.340;2022-08-01T07:15:18;22.20;99.90
17992;DHT22;9121;50.926;5.340;2022-08-01T07:17:51;22.40;99.90
17992;DHT22;9121;50.926;5.340;2022-08-01T07:20:19;22.40;99.90
17992;DHT22;9121;50.926;5.340;2022-08-01T07:22:47;22.60;99.90
17992;DHT22;9121;50.926;5.340;2022-08-01T07:25:14;22.60;99.90
17992;DHT22;9121;50.926;5.340;2022-08-01T07:27:41;22.60;99.90
17992;DHT22;9121;50.926;5.340;2022-08-01T07:30:08;22.60;99.90
17992;DHT22;9121;50.926;5.340;2022-08-01T07:32:35;22.50;99.90
17992;DHT22;9121;50.926;5.340;2022-08-01T07:35:03;22.40;99.90
17992;DHT22;9121;50.926;5.340;2022-08-01T07:37:30;22.50;99.90
17992;DHT22;9121;50.926;5.340;2022-08-01T07:39:58;22.50;99.90
17992;DHT22;9121;50.926;5.340;2022-08-01T07:42:25;22.60;99.90
17992;DHT22;9121;50.926;5.340;2022-08-01T07:44:52;22.60;99.90
17992;DHT22;9121;50.926;5.340;2022-08-01T07:47:23;22.70;99.90
17992;DHT22;9121;50.926;5.340;2022-08-01T07:49:50;22.80;99.90
17992;DHT22;9121;50.926;5.340;2022-08-01T07:52:17;22.90;99.90
17992;DHT22;9121;50.926;5.340;2022-08-01T07:54:44;23.00;99.90
17992;DHT22;9121;50.926;5.340;2022-08-01T07:57:12;23.10;99.90
17992;DHT22;9121;50.926;5.340;2022-08-01T07:59:39;23.30;99.90
17992;DHT22;9121;50.926;5.340;2022-08-01T08:02:06;23.30;99.90
17992;DHT22;9121;50.926;5.340;2022-08-01T08:04:33;23.20;99.90
17992;DHT22;9121;50.926;5.340;2022-08-01T08:07:00;23.20;99.90
17992;DHT22;9121;50.926;5.340;2022-08-01T08:09:27;23.30;99.90
17992;DHT22;9121;50.926;5.340;2022-08-01T08:11:54;23.20;99.90
17992;DHT22;9121;50.926;5.340;2022-08-01T08:14:22;23.30;99.90
17992;DHT22;9121;50.926;5.340;2022-08-01T08:16:50;23.50;99.90
17992;DHT22;9121;50.926;5.340;2022-08-01T08:19:17;23.70;99.90
17992;DHT22;9121;50.926;5.340;2022-08-01T08:21:44;23.80;99.90
17992;DHT22;9121;50.926;5.340;2022-08-01T08:24:11;23.80;99.90
17992;DHT22;9121;50.926;5.340;2022-08-01T08:26:52;23.60;99.90
17992;DHT22;9121;50.926;5.340;2022-08-01T08:29:21;23.80;99.90
17992;DHT22;9121;50.926;5.340;2022-08-01T08:31:48;23.80;99.90
17992;DHT22;9121;50.926;5.340;2022-08-01T08:34:16;23.90;99.90
17992;DHT22;9121;50.926;5.340;2022-08-01T08:36:43;23.90;99.90
17992;DHT22;9121;50.926;5.340;2022-08-01T08:39:10;23.90;99.90
17992;DHT22;9121;50.926;5.340;2022-08-01T08:41:37;23.80;99.90
17992;DHT22;9121;50.926;5.340;2022-08-01T08:44:06;23.60;99.90
17992;DHT22;9121;50.926;5.340;2022-08-01T08:46:40;23.60;99.90
17992;DHT22;9121;50.926;5.340;2022-08-01T08:49:08;23.70;99.90
17992;DHT22;9121;50.926;5.340;2022-08-01T08:51:38;23.70;99.90
17992;DHT22;9121;50.926;5.340;2022-08-01T08:54:07;23.70;99.90
17992;DHT22;9121;50.926;5.340;2022-08-01T08:56:35;23.70;99.90
17992;DHT22;9121;50.926;5.340;2022-08-01T08:59:04;24.00;99.90
17992;DHT22;9121;50.926;5.340;2022-08-01T09:01:32;24.30;99.90
17992;DHT22;9121;50.926;5.340;2022-08-01T09:04:02;24.20;99.90
17992;DHT22;9121;50.926;5.340;2022-08-01T09:06:29;24.30;99.90
17992;DHT22;9121;50.926;5.340;2022-08-01T09:08:56;24.60;99.90
17992;DHT22;9121;50.926;5.340;2022-08-01T09:11:24;24.90;99.90
17992;DHT22;9121;50.926;5.340;2022-08-01T09:14:09;25.20;99.90
17992;DHT22;9121;50.926;5.340;2022-08-01T09:16:39;25.20;99.90
17992;DHT22;9121;50.926;5.340;2022-08-01T09:19:10;25.20;99.90
17992;DHT22;9121;50.926;5.340;2022-08-01T09:21:37;25.00;99.90
17992;DHT22;9121;50.926;5.340;2022-08-01T09:24:13;25.10;99.90
17992;DHT22;9121;50.926;5.340;2022-08-01T09:26:41;25.30;99.90
17992;DHT22;9121;50.926;5.340;2022-08-01T09:29:20;25.50;99.90
17992;DHT22;9121;50.926;5.340;2022-08-01T09:31:47;25.50;99.90
17992;DHT22;9121;50.926;5.340;2022-08-01T09:34:16;25.60;99.90
17992;DHT22;9121;50.926;5.340;2022-08-01T09:36:51;25.60;99.90
17992;DHT22;9121;50.926;5.340;2022-08-01T09:39:21;25.90;99.90
17992;DHT22;9121;50.926;5.340;2022-08-01T09:41:48;25.70;99.90
17992;DHT22;9121;50.926;5.340;2022-08-01T09:44:17;25.80;99.90
17992;DHT22;9121;50.926;5.340;2022-08-01T09:46:52;25.70;99.90
17992;DHT22;9121;50.926;5.340;2022-08-01T09:49:32;25.60;99.90
17992;DHT22;9121;50.926;5.340;2022-08-01T09:52:10;25.50;99.90
17992;DHT22;9121;50.926;5.340;2022-08-01T09:54:37;25.30;99.90
17992;DHT22;9121;50.926;5.340;2022-08-01T09:57:13;25.30;99.90
17992;DHT22;9121;50.926;5.340;2022-08-01T09:59:42;25.30;99.90
17992;DHT22;9121;50.926;5.340;2022-08-01T10:02:10;25.50;99.90
17992;DHT22;9121;50.926;5.340;2022-08-01T10:04:47;25.60;99.90
17992;DHT22;9121;50.926;5.340;2022-08-01T10:07:15;25.60;99.90
17992;DHT22;9121;50.926;5.340;2022-08-01T10:09:43;25.60;99.90
17992;DHT22;9121;50.926;5.340;2022-08-01T10:12:12;25.50;99.90
17992;DHT22;9121;50.926;5.340;2022-08-01T10:14:40;25.40;99.90
17992;DHT22;9121;50.926;5.340;2022-08-01T10:17:08;25.50;99.90
17992;DHT22;9121;50.926;5.340;2022-08-01T10:19:36;25.50;99.90
17992;DHT22;9121;50.926;5.340;2022-08-01T10:22:08;25.60;99.90
17992;DHT22;9121;50.926;5.340;2022-08-01T10:24:37;25.90;99.90
17992;DHT22;9121;50.926;5.340;2022-08-01T10:27:08;25.90;99.90
17992;DHT22;9121;50.926;5.340;2022-08-01T10:29:39;25.90;99.90
17992;DHT22;9121;50.926;5.340;2022-08-01T10:32:07;25.60;99.90
17992;DHT22;9121;50.926;5.340;2022-08-01T10:34:36;25.60;99.90
17992;DHT22;9121;50.926;5.340;2022-08-01T10:37:05;25.90;99.90
17992;DHT22;9121;50.926;5.340;2022-08-01T10:39:32;25.90;99.90
17992;DHT22;9121;50.926;5.340;2022-08-01T10:42:00;26.00;99.90
17992;DHT22;9121;50.926;5.340;2022-08-01T10:44:29;26.20;99.90
17992;DHT22;9121;50.926;5.340;2022-08-01T10:47:01;26.10;99.90
17992;DHT22;9121;50.926;5.340;2022-08-01T10:49:31;26.00;99.90
17992;DHT22;9121;50.926;5.340;2022-08-01T10:52:02;26.10;99.90
17992;DHT22;9121;50.926;5.340;2022-08-01T10:54:38;26.10;99.90
17992;DHT22;9121;50.926;5.340;2022-08-01T10:57:05;26.30;99.90
17992;DHT22;9121;50.926;5.340;2022-08-01T10:59:33;26.50;99.90
17992;DHT22;9121;50.926;5.340;2022-08-01T11:02:02;26.80;99.90
17992;DHT22;9121;50.926;5.340;2022-08-01T11:04:41;27.10;99.90
17992;DHT22;9121;50.926;5.340;2022-08-01T11:07:16;27.10;99.90
17992;DHT22;9121;50.926;5.340;2022-08-01T11:09:46;26.90;99.90
17992;DHT22;9121;50.926;5.340;2022-08-01T11:12:17;26.70;99.90
17992;DHT22;9121;50.926;5.340;2022-08-01T11:15:16;26.50;99.90
17992;DHT22;9121;50.926;5.340;2022-08-01T11:17:50;26.80;99.90
17992;DHT22;9121;50.926;5.340;2022-08-01T11:20:18;27.20;99.90
17992;DHT22;9121;50.926;5.340;2022-08-01T11:26:21;27.70;99.90
17992;DHT22;9121;50.926;5.340;2022-08-01T11:29:10;26.80;99.90
17992;DHT22;9121;50.926;5.340;2022-08-01T11:31:37;27.20;99.90
17992;DHT22;9121;50.926;5.340;2022-08-01T11:34:05;27.70;99.90
17992;DHT22;9121;50.926;5.340;2022-08-01T11:36:32;27.90;99.90
17992;DHT22;9121;50.926;5.340;2022-08-01T11:39:17;28.10;99.90
17992;DHT22;9121;50.926;5.340;2022-08-01T11:41:47;28.00;99.90
17992;DHT22;9121;50.926;5.340;2022-08-01T11:44:19;28.00;99.90
17992;DHT22;9121;50.926;5.340;2022-08-01T11:46:56;28.20;99.90
17992;DHT22;9121;50.926;5.340;2022-08-01T11:49:43;28.20;99.90
17992;DHT22;9121;50.926;5.340;2022-08-01T11:52:12;28.10;99.90
17992;DHT22;9121;50.926;5.340;2022-08-01T11:54:42;28.20;99.90
17992;DHT22;9121;50.926;5.340;2022-08-01T11:57:12;28.40;99.90
17992;DHT22;9121;50.926;5.340;2022-08-01T11:59:41;28.10;99.90
17992;DHT22;9121;50.926;5.340;2022-08-01T12:02:22;28.20;99.90
17992;DHT22;9121;50.926;5.340;2022-08-01T12:04:53;28.40;99.90
17992;DHT22;9121;50.926;5.340;2022-08-01T12:07:21;28.20;99.90
17992;DHT22;9121;50.926;5.340;2022-08-01T12:09:51;28.20;99.90
17992;DHT22;9121;50.926;5.340;2022-08-01T12:12:24;27.90;99.90
17992;DHT22;9121;50.926;5.340;2022-08-01T12:14:55;27.90;99.90
17992;DHT22;9121;50.926;5.340;2022-08-01T12:17:34;28.00;99.90
17992;DHT22;9121;50.926;5.340;2022-08-01T12:20:03;28.20;99.90
17992;DHT22;9121;50.926;5.340;2022-08-01T12:22:30;28.40;99.90
17992;DHT22;9121;50.926;5.340;2022-08-01T12:25:05;28.40;99.90
17992;DHT22;9121;50.926;5.340;2022-08-01T12:27:34;28.10;99.90
17992;DHT22;9121;50.926;5.340;2022-08-01T12:30:03;28.20;99.90
17992;DHT22;9121;50.926;5.340;2022-08-01T12:32:32;28.10;99.90
17992;DHT22;9121;50.926;5.340;2022-08-01T12:35:03;28.10;99.90
17992;DHT22;9121;50.926;5.340;2022-08-01T12:37:30;28.10;99.90
17992;DHT22;9121;50.926;5.340;2022-08-01T12:39:57;28.20;99.90
17992;DHT22;9121;50.926;5.340;2022-08-01T12:42:24;28.50;99.90
17992;DHT22;9121;50.926;5.340;2022-08-01T12:44:53;28.90;99.90
17992;DHT22;9121;50.926;5.340;2022-08-01T12:47:21;29.20;99.90
17992;DHT22;9121;50.926;5.340;2022-08-01T12:49:48;29.60;99.90
17992;DHT22;9121;50.926;5.340;2022-08-01T12:52:16;30.20;99.90
17992;DHT22;9121;50.926;5.340;2022-08-01T12:55:03;30.30;99.90
17992;DHT22;9121;50.926;5.340;2022-08-01T12:57:32;30.60;99.90
17992;DHT22;9121;50.926;5.340;2022-08-01T13:00:22;30.80;99.90
17992;DHT22;9121;50.926;5.340;2022-08-01T13:02:50;31.30;99.90
17992;DHT22;9121;50.926;5.340;2022-08-01T13:05:26;31.60;99.90
17992;DHT22;9121;50.926;5.340;2022-08-01T13:07:53;32.00;99.90
17992;DHT22;9121;50.926;5.340;2022-08-01T13:10:28;31.40;99.90
17992;DHT22;9121;50.926;5.340;2022-08-01T13:12:56;31.60;99.60
17992;DHT22;9121;50.926;5.340;2022-08-01T13:15:30;31.50;99.60
17992;DHT22;9121;50.926;5.340;2022-08-01T13:17:59;30.80;99.90
17992;DHT22;9121;50.926;5.340;2022-08-01T13:20:29;31.00;99.90
17992;DHT22;9121;50.926;5.340;2022-08-01T13:23:10;31.80;99.40
17992;DHT22;9121;50.926;5.340;2022-08-01T13:25:47;31.80;98.90
17992;DHT22;9121;50.926;5.340;2022-08-01T13:28:16;31.30;99.20
17992;DHT22;9121;50.926;5.340;2022-08-01T13:30:53;31.20;99.90
17992;DHT22;9121;50.926;5.340;2022-08-01T13:33:20;31.50;99.60
17992;DHT22;9121;50.926;5.340;2022-08-01T13:35:50;31.50;99.20
17992;DHT22;9121;50.926;5.340;2022-08-01T13:38:17;31.50;98.90
17992;DHT22;9121;50.926;5.340;2022-08-01T13:40:44;31.40;99.20
17992;DHT22;9121;50.926;5.340;2022-08-01T13:43:11;31.20;99.10
17992;DHT22;9121;50.926;5.340;2022-08-01T13:45:37;30.50;99.50
17992;DHT22;9121;50.926;5.340;2022-08-01T13:48:06;29.80;99.90
17992;DHT22;9121;50.926;5.340;2022-08-01T13:50:35;29.70;99.90
17992;DHT22;9121;50.926;5.340;2022-08-01T13:53:02;29.80;99.90
17992;DHT22;9121;50.926;5.340;2022-08-01T13:55:29;29.10;99.90
17992;DHT22;9121;50.926;5.340;2022-08-01T13:57:56;28.80;99.90
17992;DHT22;9121;50.926;5.340;2022-08-01T14:00:22;29.20;99.90
17992;DHT22;9121;50.926;5.340;2022-08-01T14:02:49;29.70;99.90
17992;DHT22;9121;50.926;5.340;2022-08-01T14:05:18;29.80;99.90
17992;DHT22;9121;50.926;5.340;2022-08-01T14:07:45;28.70;99.90
17992;DHT22;9121;50.926;5.340;2022-08-01T14:10:12;28.70;99.90
17992;DHT22;9121;50.926;5.340;2022-08-01T14:12:39;28.60;99.90
17992;DHT22;9121;50.926;5.340;2022-08-01T14:15:07;29.40;99.90
17992;DHT22;9121;50.926;5.340;2022-08-01T14:17:34;30.80;99.90
17992;DHT22;9121;50.926;5.340;2022-08-01T14:20:01;32.00;99.20
17992;DHT22;9121;50.926;5.340;2022-08-01T14:22:31;31.50;99.20
17992;DHT22;9121;50.926;5.340;2022-08-01T14:24:58;30.60;99.90
17992;DHT22;9121;50.926;5.340;2022-08-01T14:27:25;31.10;99.90
17992;DHT22;9121;50.926;5.340;2022-08-01T14:29:55;31.30;99.80
17992;DHT22;9121;50.926;5.340;2022-08-01T14:32:22;31.00;99.90
17992;DHT22;9121;50.926;5.340;2022-08-01T14:34:49;31.00;99.90
17992;DHT22;9121;50.926;5.340;2022-08-01T14:37:16;31.40;99.90
17992;DHT22;9121;50.926;5.340;2022-08-01T14:39:44;31.70;99.40
17992;DHT22;9121;50.926;5.340;2022-08-01T14:42:11;32.30;98.70
17992;DHT22;9121;50.926;5.340;2022-08-01T14:44:38;32.70;97.60
17992;DHT22;9121;50.926;5.340;2022-08-01T14:47:05;31.20;99.40
17992;DHT22;9121;50.926;5.340;2022-08-01T14:49:32;31.40;98.80
17992;DHT22;9121;50.926;5.340;2022-08-01T14:51:59;32.00;98.60
17992;DHT22;9121;50.926;5.340;2022-08-01T14:54:26;32.90;97.30
17992;DHT22;9121;50.926;5.340;2022-08-01T14:56:55;32.60;96.90
17992;DHT22;9121;50.926;5.340;2022-08-01T14:59:21;31.40;97.80
17992;DHT22;9121;50.926;5.340;2022-08-01T15:01:48;30.20;99.00
17992;DHT22;9121;50.926;5.340;2022-08-01T15:04:15;30.10;99.40
17992;DHT22;9121;50.926;5.340;2022-08-01T15:06:43;31.10;98.60
17992;DHT22;9121;50.926;5.340;2022-08-01T15:09:10;32.30;97.50
17992;DHT22;9121;50.926;5.340;2022-08-01T15:11:36;32.70;97.10
17992;DHT22;9121;50.926;5.340;2022-08-01T15:14:05;31.90;97.50
17992;DHT22;9121;50.926;5.340;2022-08-01T15:17:04;31.50;97.80
17992;DHT22;9121;50.926;5.340;2022-08-01T15:19:33;32.40;96.90
17992;DHT22;9121;50.926;5.340;2022-08-01T15:22:00;32.70;96.50
17992;DHT22;9121;50.926;5.340;2022-08-01T15:24:27;32.70;96.50
17992;DHT22;9121;50.926;5.340;2022-08-01T15:26:54;32.70;96.40
17992;DHT22;9121;50.926;5.340;2022-08-01T15:29:22;33.20;95.70
17992;DHT22;9121;50.926;5.340;2022-08-01T15:31:49;33.20;95.20
17992;DHT22;9121;50.926;5.340;2022-08-01T15:34:16;33.30;95.30
17992;DHT22;9121;50.926;5.340;2022-08-01T15:36:43;33.10;94.70
17992;DHT22;9121;50.926;5.340;2022-08-01T15:39:10;32.70;95.20
17992;DHT22;9121;50.926;5.340;2022-08-01T15:41:37;32.90;94.60
17992;DHT22;9121;50.926;5.340;2022-08-01T15:44:04;33.30;93.90
17992;DHT22;9121;50.926;5.340;2022-08-01T15:46:33;34.10;92.90
17992;DHT22;9121;50.926;5.340;2022-08-01T15:49:02;34.50;92.10
17992;DHT22;9121;50.926;5.340;2022-08-01T15:51:29;34.00;92.40
17992;DHT22;9121;50.926;5.340;2022-08-01T15:53:56;33.70;91.60
17992;DHT22;9121;50.926;5.340;2022-08-01T15:56:23;33.50;91.90
17992;DHT22;9121;50.926;5.340;2022-08-01T15:58:50;33.50;92.10
17992;DHT22;9121;50.926;5.340;2022-08-01T16:01:17;34.10;91.80